createdAt,value
2022-09-15T00:00:30.365Z,1003.42
2022-09-15T00:01:30.476Z,1003.43
2022-09-15T00:02:30.453Z,1003.43
2022-09-15T00:03:30.340Z,1003.46
2022-09-15T00:04:30.336Z,1003.45
2022-09-15T00:05:30.339Z,1003.45
2022-09-15T00:06:30.339Z,1003.45
2022-09-15T00:07:30.357Z,1003.41
2022-09-15T00:08:30.340Z,1003.41
2022-09-15T00:09:30.336Z,1003.43
2022-09-15T00:10:30.351Z,1003.5
2022-09-15T00:11:30.334Z,1003.49
2022-09-15T00:12:30.363Z,1003.48
2022-09-15T00:13:30.362Z,1003.49
2022-09-15T00:14:30.341Z,1003.5
2022-09-15T00:15:30.367Z,1003.55
2022-09-15T00:16:30.387Z,1003.54
2022-09-15T00:17:30.355Z,1003.57
2022-09-15T00:18:30.346Z,1003.58
2022-09-15T00:19:30.340Z,1003.57
2022-09-15T00:20:30.341Z,1003.55
2022-09-15T00:21:30.350Z,1003.6
2022-09-15T00:22:30.357Z,1003.63
2022-09-15T00:23:30.347Z,1003.61
2022-09-15T00:24:30.348Z,1003.64
2022-09-15T00:25:30.358Z,1003.64
2022-09-15T00:26:30.345Z,1003.64
2022-09-15T00:27:30.356Z,1003.62
2022-09-15T00:28:30.345Z,1003.66
2022-09-15T00:29:30.349Z,1003.69
2022-09-15T00:30:30.399Z,1003.69
2022-09-15T00:31:30.339Z,1003.74
2022-09-15T00:32:30.360Z,1003.75
2022-09-15T00:33:30.341Z,1003.78
2022-09-15T00:34:30.354Z,1003.79
2022-09-15T00:35:30.338Z,1003.74
2022-09-15T00:36:30.344Z,1003.75
2022-09-15T00:37:30.359Z,1003.68
2022-09-15T00:38:30.358Z,1003.66
2022-09-15T00:39:30.350Z,1003.67
2022-09-15T00:40:30.440Z,1003.66
2022-09-15T00:41:30.342Z,1003.67
2022-09-15T00:42:30.393Z,1003.68
2022-09-15T00:43:30.344Z,1003.69
2022-09-15T00:44:30.343Z,1003.76
2022-09-15T00:45:30.416Z,1003.82
2022-09-15T00:46:30.338Z,1003.83
2022-09-15T00:47:30.357Z,1003.79
2022-09-15T00:48:30.341Z,1003.71
2022-09-15T00:49:30.344Z,1003.68
2022-09-15T00:50:30.341Z,1003.66
2022-09-15T00:51:30.342Z,1003.57
2022-09-15T00:52:30.379Z,1003.5
2022-09-15T00:53:30.343Z,1003.55
2022-09-15T00:54:30.343Z,1003.59
2022-09-15T00:55:30.386Z,1003.66
2022-09-15T00:56:30.354Z,1003.69
2022-09-15T00:57:30.366Z,1003.71
2022-09-15T00:58:30.337Z,1003.67
2022-09-15T00:59:30.337Z,1003.63
2022-09-15T01:00:30.364Z,1003.63
2022-09-15T01:01:30.372Z,1003.66
2022-09-15T01:02:30.524Z,1003.7
2022-09-15T01:03:30.337Z,1003.72
2022-09-15T01:04:30.370Z,1003.73
2022-09-15T01:05:30.386Z,1003.78
2022-09-15T01:06:30.378Z,1003.82
2022-09-15T01:07:30.423Z,1003.82
2022-09-15T01:08:30.372Z,1003.82
2022-09-15T01:09:30.335Z,1003.8
2022-09-15T01:10:30.356Z,1003.81
2022-09-15T01:11:30.335Z,1003.81
2022-09-15T01:12:30.364Z,1003.79
2022-09-15T01:13:30.355Z,1003.75
2022-09-15T01:14:30.334Z,1003.72
2022-09-15T01:15:30.333Z,1003.73
2022-09-15T01:16:30.371Z,1003.7
2022-09-15T01:17:30.361Z,1003.73
2022-09-15T01:18:30.331Z,1003.7
2022-09-15T01:19:30.333Z,1003.67
2022-09-15T01:20:30.341Z,1003.71
2022-09-15T01:21:30.341Z,1003.73
2022-09-15T01:22:30.353Z,1003.78
2022-09-15T01:23:30.350Z,1003.79
2022-09-15T01:24:30.333Z,1003.76
2022-09-15T01:25:30.362Z,1003.82
2022-09-15T01:26:30.345Z,1003.84
2022-09-15T01:27:41.976Z,1003.89
2022-09-15T01:28:30.365Z,1003.92
2022-09-15T01:29:30.333Z,1003.9
2022-09-15T01:30:30.340Z,1003.9
2022-09-15T01:31:30.396Z,1003.97
2022-09-15T01:32:30.356Z,1003.99
2022-09-15T01:33:30.340Z,1003.97
2022-09-15T01:34:30.346Z,1003.93
2022-09-15T01:35:30.354Z,1003.96
2022-09-15T01:36:30.340Z,1003.93
2022-09-15T01:37:30.423Z,1003.91
2022-09-15T01:38:30.349Z,1003.9
2022-09-15T01:39:30.354Z,1003.91
2022-09-15T01:40:30.427Z,1003.94
2022-09-15T01:41:30.337Z,1003.89
2022-09-15T01:42:30.350Z,1003.83
2022-09-15T01:43:30.339Z,1003.82
2022-09-15T01:44:30.333Z,1003.83
2022-09-15T01:45:30.450Z,1003.87
2022-09-15T01:46:30.341Z,1003.87
2022-09-15T01:47:30.356Z,1003.88
2022-09-15T01:48:30.346Z,1003.9
2022-09-15T01:49:30.345Z,1003.87
2022-09-15T01:50:30.346Z,1003.87
2022-09-15T01:51:30.344Z,1003.88
2022-09-15T01:52:30.352Z,1003.88
2022-09-15T01:53:30.342Z,1003.89
2022-09-15T01:54:30.341Z,1003.95
2022-09-15T01:55:32.514Z,1003.91
2022-09-15T01:56:30.337Z,1003.91
2022-09-15T01:57:30.351Z,1003.98
2022-09-15T01:58:30.332Z,1003.98
2022-09-15T01:59:30.343Z,1004.01
2022-09-15T02:00:30.342Z,1004.01
2022-09-15T02:01:30.362Z,1004.01
2022-09-15T02:02:30.414Z,1004.07
2022-09-15T02:03:30.335Z,1004.06
2022-09-15T02:04:30.339Z,1003.99
2022-09-15T02:05:30.342Z,1003.97
2022-09-15T02:06:30.333Z,1003.98
2022-09-15T02:07:30.356Z,1003.97
2022-09-15T02:08:30.333Z,1003.97
2022-09-15T02:09:30.332Z,1004.03
2022-09-15T02:10:30.340Z,1004.06
2022-09-15T02:11:30.386Z,1004.09
2022-09-15T02:12:30.375Z,1004.11
2022-09-15T02:13:30.329Z,1004.16
2022-09-15T02:14:30.351Z,1004.16
2022-09-15T02:15:30.330Z,1004.18
2022-09-15T02:16:30.383Z,1004.21
2022-09-15T02:17:30.370Z,1004.19
2022-09-15T02:18:30.342Z,1004.17
2022-09-15T02:19:30.334Z,1004.21
2022-09-15T02:20:30.339Z,1004.25
2022-09-15T02:21:30.338Z,1004.2
2022-09-15T02:22:30.360Z,1004.15
2022-09-15T02:23:30.358Z,1004.18
2022-09-15T02:24:30.337Z,1004.21
2022-09-15T02:25:30.368Z,1004.24
2022-09-15T02:26:30.367Z,1004.24
2022-09-15T02:27:30.432Z,1004.29
2022-09-15T02:28:30.334Z,1004.31
2022-09-15T02:29:30.361Z,1004.31
2022-09-15T02:30:30.405Z,1004.31
2022-09-15T02:31:30.377Z,1004.33
2022-09-15T02:32:30.363Z,1004.35
2022-09-15T02:33:30.338Z,1004.35
2022-09-15T02:34:30.355Z,1004.29
2022-09-15T02:35:30.362Z,1004.24
2022-09-15T02:36:30.341Z,1004.22
2022-09-15T02:37:30.359Z,1004.18
2022-09-15T02:38:30.345Z,1004.2
2022-09-15T02:39:30.341Z,1004.2
2022-09-15T02:40:30.418Z,1004.21
2022-09-15T02:41:30.361Z,1004.23
2022-09-15T02:42:30.373Z,1004.26
2022-09-15T02:43:30.341Z,1004.28
2022-09-15T02:44:30.343Z,1004.26
2022-09-15T02:45:30.419Z,1004.3
2022-09-15T02:46:30.343Z,1004.28
2022-09-15T02:47:30.383Z,1004.3
2022-09-15T02:48:30.341Z,1004.35
2022-09-15T02:49:30.344Z,1004.35
2022-09-15T02:50:30.339Z,1004.37
2022-09-15T02:51:30.360Z,1004.37
2022-09-15T02:52:30.350Z,1004.37
2022-09-15T02:53:30.343Z,1004.4
2022-09-15T02:54:30.337Z,1004.42
2022-09-15T02:55:30.337Z,1004.44
2022-09-15T02:56:30.366Z,1004.45
2022-09-15T02:57:30.357Z,1004.47
2022-09-15T02:58:30.334Z,1004.48
2022-09-15T02:59:30.347Z,1004.51
2022-09-15T03:00:30.344Z,1004.48
2022-09-15T03:01:30.345Z,1004.49
2022-09-15T03:02:30.479Z,1004.46
2022-09-15T03:03:30.342Z,1004.42
2022-09-15T03:04:30.337Z,1004.48
2022-09-15T03:05:30.344Z,1004.47
2022-09-15T03:06:30.342Z,1004.49
2022-09-15T03:07:30.355Z,1004.48
2022-09-15T03:08:30.339Z,1004.48
2022-09-15T03:09:30.336Z,1004.51
2022-09-15T03:10:30.347Z,1004.54
2022-09-15T03:11:30.353Z,1004.56
2022-09-15T03:12:30.370Z,1004.52
2022-09-15T03:13:30.341Z,1004.55
2022-09-15T03:14:30.340Z,1004.56
2022-09-15T03:15:30.332Z,1004.56
2022-09-15T03:16:30.378Z,1004.56
2022-09-15T03:17:30.356Z,1004.62
2022-09-15T03:18:30.336Z,1004.58
2022-09-15T03:19:30.370Z,1004.65
2022-09-15T03:20:30.387Z,1004.65
2022-09-15T03:21:30.347Z,1004.84
2022-09-15T03:22:30.432Z,1004.84
2022-09-15T03:23:30.329Z,1004.85
2022-09-15T03:24:30.331Z,1004.85
2022-09-15T03:25:30.330Z,1004.85
2022-09-15T03:26:30.357Z,1004.83
2022-09-15T03:27:30.354Z,1004.88
2022-09-15T03:28:30.336Z,1004.87
2022-09-15T03:29:30.369Z,1004.86
2022-09-15T03:30:30.333Z,1004.86
2022-09-15T03:31:30.400Z,1004.82
2022-09-15T03:32:30.346Z,1004.84
2022-09-15T03:33:30.337Z,1004.86
2022-09-15T03:34:30.359Z,1004.86
2022-09-15T03:35:30.337Z,1004.83
2022-09-15T03:36:30.333Z,1004.85
2022-09-15T03:37:30.368Z,1004.86
2022-09-15T03:38:30.335Z,1004.87
2022-09-15T03:39:30.332Z,1004.86
2022-09-15T03:40:30.388Z,1004.89
2022-09-15T03:41:30.348Z,1004.7
2022-09-15T03:42:30.355Z,1004.67
2022-09-15T03:43:30.345Z,1004.69
2022-09-15T03:44:30.340Z,1004.72
2022-09-15T03:45:30.381Z,1004.88
2022-09-15T03:46:30.336Z,1004.85
2022-09-15T03:47:30.356Z,1004.83
2022-09-15T03:48:30.339Z,1004.82
2022-09-15T03:49:30.335Z,1004.8
2022-09-15T03:50:30.353Z,1004.78
2022-09-15T03:51:30.341Z,1004.78
2022-09-15T03:52:30.354Z,1004.75
2022-09-15T03:53:30.372Z,1004.77
2022-09-15T03:54:30.337Z,1004.77
2022-09-15T03:55:30.413Z,1004.77
2022-09-15T03:56:30.361Z,1004.76
2022-09-15T03:57:30.362Z,1004.75
2022-09-15T03:58:30.971Z,1004.77
2022-09-15T03:59:30.336Z,1004.79
2022-09-15T04:00:30.424Z,1004.79
2022-09-15T04:01:30.586Z,1004.78
2022-09-15T04:02:30.351Z,1004.76
2022-09-15T04:03:30.342Z,1004.7
2022-09-15T04:04:30.345Z,1004.55
2022-09-15T04:05:30.339Z,1004.47
2022-09-15T04:06:30.338Z,1004.48
2022-09-15T04:07:30.361Z,1004.5
2022-09-15T04:08:30.337Z,1004.5
2022-09-15T04:09:30.337Z,1004.47
2022-09-15T04:10:30.363Z,1004.47
2022-09-15T04:11:30.356Z,1004.46
2022-09-15T04:12:30.353Z,1004.49
2022-09-15T04:13:30.338Z,1004.54
2022-09-15T04:14:30.336Z,1004.6
2022-09-15T04:15:30.341Z,1004.64
2022-09-15T04:16:30.422Z,1004.63
2022-09-15T04:17:30.360Z,1004.61
2022-09-15T04:18:30.346Z,1004.59
2022-09-15T04:19:30.339Z,1004.61
2022-09-15T04:20:30.373Z,1004.61
2022-09-15T04:21:30.333Z,1004.67
2022-09-15T04:22:30.347Z,1004.68
2022-09-15T04:23:30.339Z,1004.63
2022-09-15T04:24:30.337Z,1004.63
2022-09-15T04:25:30.337Z,1004.61
2022-09-15T04:26:30.346Z,1004.64
2022-09-15T04:27:30.353Z,1004.62
2022-09-15T04:28:30.340Z,1004.63
2022-09-15T04:29:30.337Z,1004.66
2022-09-15T04:30:30.339Z,1004.66
2022-09-15T04:31:30.393Z,1004.69
2022-09-15T04:32:30.356Z,1004.69
2022-09-15T04:33:30.335Z,1004.68
2022-09-15T04:34:30.330Z,1004.7
2022-09-15T04:35:30.358Z,1004.75
2022-09-15T04:36:30.350Z,1004.76
2022-09-15T04:37:30.358Z,1004.69
2022-09-15T04:38:30.334Z,1004.73
2022-09-15T04:39:30.341Z,1004.73
2022-09-15T04:40:30.432Z,1004.73
2022-09-15T04:41:30.359Z,1004.83
2022-09-15T04:42:30.355Z,1004.84
2022-09-15T04:43:30.332Z,1004.87
2022-09-15T04:44:30.375Z,1004.9
2022-09-15T04:45:30.338Z,1004.89
2022-09-15T04:46:30.376Z,1004.86
2022-09-15T04:47:30.347Z,1004.82
2022-09-15T04:48:30.329Z,1004.84
2022-09-15T04:49:30.349Z,1004.82
2022-09-15T04:50:30.336Z,1004.82
2022-09-15T04:51:30.338Z,1004.81
2022-09-15T04:52:30.346Z,1004.76
2022-09-15T04:53:30.345Z,1004.8
2022-09-15T04:54:30.332Z,1004.81
2022-09-15T04:55:30.353Z,1004.81
2022-09-15T04:56:30.536Z,1004.85
2022-09-15T04:57:30.353Z,1004.88
2022-09-15T04:58:30.334Z,1004.84
2022-09-15T04:59:30.334Z,1004.81
2022-09-15T05:00:30.519Z,1004.81
2022-09-15T05:01:30.344Z,1004.82
2022-09-15T05:02:30.436Z,1004.82
2022-09-15T05:03:30.338Z,1004.82
2022-09-15T05:04:30.333Z,1004.84
2022-09-15T05:05:30.339Z,1004.83
2022-09-15T05:06:30.347Z,1004.8
2022-09-15T05:07:30.349Z,1004.76
2022-09-15T05:08:30.333Z,1004.76
2022-09-15T05:09:30.331Z,1004.8
2022-09-15T05:10:30.346Z,1004.75
2022-09-15T05:11:30.355Z,1004.73
2022-09-15T05:12:30.347Z,1004.72
2022-09-15T05:13:30.337Z,1004.89
2022-09-15T05:14:30.339Z,1004.91
2022-09-15T05:15:30.333Z,1004.91
2022-09-15T05:16:30.497Z,1004.94
2022-09-15T05:17:30.357Z,1004.93
2022-09-15T05:18:30.334Z,1004.99
2022-09-15T05:19:30.334Z,1005
2022-09-15T05:20:30.339Z,1005
2022-09-15T05:21:30.337Z,1005.01
2022-09-15T05:22:30.378Z,1005.02
2022-09-15T05:23:30.335Z,1005.01
2022-09-15T05:24:30.333Z,1005.03
2022-09-15T05:25:30.338Z,1005.02
2022-09-15T05:26:30.360Z,1005.04
2022-09-15T05:27:30.353Z,1005.09
2022-09-15T05:28:30.339Z,1005.1
2022-09-15T05:29:30.332Z,1005.1
2022-09-15T05:30:38.635Z,1005.1
2022-09-15T05:31:30.348Z,1005.08
2022-09-15T05:32:30.350Z,1005.1
2022-09-15T05:33:30.334Z,1005.05
2022-09-15T05:34:30.331Z,1005.06
2022-09-15T05:35:30.335Z,1005.06
2022-09-15T05:36:30.365Z,1005.08
2022-09-15T05:37:30.362Z,1005.08
2022-09-15T05:38:30.328Z,1005.09
2022-09-15T05:39:30.331Z,1004.93
2022-09-15T05:40:30.370Z,1004.93
2022-09-15T05:41:30.372Z,1004.96
2022-09-15T05:42:30.346Z,1005
2022-09-15T05:43:30.333Z,1005.06
2022-09-15T05:44:30.339Z,1005.06
2022-09-15T05:45:30.350Z,1005.06
2022-09-15T05:46:30.423Z,1005.28
2022-09-15T05:47:30.357Z,1005.28
2022-09-15T05:48:30.337Z,1005.3
2022-09-15T05:49:30.353Z,1005.1
2022-09-15T05:50:30.338Z,1005.1
2022-09-15T05:51:30.349Z,1005.26
2022-09-15T05:52:30.361Z,1005.23
2022-09-15T05:53:30.332Z,1005.22
2022-09-15T05:54:30.341Z,1005.19
2022-09-15T05:55:30.336Z,1005.19
2022-09-15T05:56:30.355Z,1005.17
2022-09-15T05:57:30.362Z,1005.16
2022-09-15T05:58:30.340Z,1005.23
2022-09-15T05:59:30.338Z,1005.19
2022-09-15T06:00:30.346Z,1005.19
2022-09-15T06:01:30.371Z,1005.17
2022-09-15T06:02:30.388Z,1005.16
2022-09-15T06:03:31.218Z,1005.16
2022-09-15T06:04:30.405Z,1005.18
2022-09-15T06:05:30.337Z,1005.25
2022-09-15T06:06:30.337Z,1005.09
2022-09-15T06:07:30.389Z,1005.08
2022-09-15T06:08:30.339Z,1005.08
2022-09-15T06:09:30.341Z,1005.15
2022-09-15T06:10:30.347Z,1005.15
2022-09-15T06:11:30.353Z,1005.16
2022-09-15T06:12:30.359Z,1005.16
2022-09-15T06:13:30.376Z,1005.15
2022-09-15T06:14:30.339Z,1005.15
2022-09-15T06:15:30.338Z,1005.18
2022-09-15T06:16:30.391Z,1005.22
2022-09-15T06:17:30.362Z,1005.19
2022-09-15T06:18:30.339Z,1005.2
2022-09-15T06:19:30.334Z,1005.15
2022-09-15T06:20:30.339Z,1005.11
2022-09-15T06:21:30.339Z,1005.15
2022-09-15T06:22:30.358Z,1005.17
2022-09-15T06:23:30.355Z,1005.21
2022-09-15T06:24:30.341Z,1005.17
2022-09-15T06:25:30.375Z,1005.16
2022-09-15T06:26:30.353Z,1005.17
2022-09-15T06:27:30.353Z,1005.16
2022-09-15T06:28:30.328Z,1005.17
2022-09-15T06:29:30.334Z,1005.16
2022-09-15T06:30:30.344Z,1005.16
2022-09-15T06:31:30.383Z,1005.18
2022-09-15T06:32:30.355Z,1005.17
2022-09-15T06:33:30.333Z,1005.26
2022-09-15T06:34:30.346Z,1005.19
2022-09-15T06:35:30.353Z,1005.21
2022-09-15T06:36:30.347Z,1005.18
2022-09-15T06:37:30.361Z,1005.16
2022-09-15T06:38:30.345Z,1005.15
2022-09-15T06:39:30.346Z,1005.17
2022-09-15T06:40:30.396Z,1005.35
2022-09-15T06:41:46.993Z,1005.41
2022-09-15T06:42:30.435Z,1005.41
2022-09-15T06:43:30.335Z,1005.22
2022-09-15T06:44:30.328Z,1005.2
2022-09-15T06:45:30.332Z,1005.2
2022-09-15T06:46:30.404Z,1005.2
2022-09-15T06:47:30.417Z,1005.18
2022-09-15T06:48:30.343Z,1005.16
2022-09-15T06:49:30.349Z,1005.17
2022-09-15T06:50:30.349Z,1005.17
2022-09-15T06:51:30.334Z,1005.19
2022-09-15T06:52:30.412Z,1005.24
2022-09-15T06:53:30.331Z,1005.25
2022-09-15T06:54:30.335Z,1005.27
2022-09-15T06:55:30.332Z,1005.22
2022-09-15T06:56:33.426Z,1005.23
2022-09-15T06:57:30.367Z,1005.26
2022-09-15T06:58:30.340Z,1005.22
2022-09-15T06:59:30.342Z,1005.26
2022-09-15T07:00:30.338Z,1005.26
2022-09-15T07:01:30.344Z,1005.3
2022-09-15T07:02:30.511Z,1005.32
2022-09-15T07:03:30.566Z,1005.33
2022-09-15T07:04:30.348Z,1005.38
2022-09-15T07:05:30.343Z,1005.35
2022-09-15T07:06:30.335Z,1005.37
2022-09-15T07:07:30.359Z,1005.34
2022-09-15T07:08:30.345Z,1005.34
2022-09-15T07:09:30.340Z,1005.33
2022-09-15T07:10:30.333Z,1005.33
2022-09-15T07:11:30.359Z,1005.31
2022-09-15T07:12:30.373Z,1005.33
2022-09-15T07:13:30.345Z,1005.32
2022-09-15T07:14:30.340Z,1005.35
2022-09-15T07:15:30.343Z,1005.31
2022-09-15T07:16:30.440Z,1005.27
2022-09-15T07:17:30.356Z,1005.29
2022-09-15T07:18:30.349Z,1005.29
2022-09-15T07:19:30.343Z,1005.27
2022-09-15T07:20:30.346Z,1005.25
2022-09-15T07:21:30.349Z,1005.23
2022-09-15T07:22:30.390Z,1005.27
2022-09-15T07:23:30.356Z,1005.25
2022-09-15T07:24:30.340Z,1005.23
2022-09-15T07:25:30.351Z,1005.24
2022-09-15T07:26:30.359Z,1005.24
2022-09-15T07:27:30.357Z,1005.26
2022-09-15T07:28:30.344Z,1005.21
2022-09-15T07:29:31.080Z,1005.23
2022-09-15T07:30:30.339Z,1005.23
2022-09-15T07:31:30.399Z,1005.25
2022-09-15T07:32:30.499Z,1005.27
2022-09-15T07:33:30.415Z,1005.35
2022-09-15T07:34:30.334Z,1005.34
2022-09-15T07:35:30.337Z,1005.31
2022-09-15T07:36:30.363Z,1005.33
2022-09-15T07:37:30.360Z,1005.36
2022-09-15T07:38:30.332Z,1005.35
2022-09-15T07:39:30.342Z,1005.29
2022-09-15T07:40:30.392Z,1005.29
2022-09-15T07:41:30.352Z,1005.26
2022-09-15T07:42:34.750Z,1005.25
2022-09-15T07:43:30.410Z,1005.26
2022-09-15T07:44:30.337Z,1005.3
2022-09-15T07:45:30.352Z,1005.3
2022-09-15T07:46:30.338Z,1005.22
2022-09-15T07:47:30.384Z,1005.25
2022-09-15T07:48:30.327Z,1005.22
2022-09-15T07:49:30.340Z,1005.23
2022-09-15T07:50:30.356Z,1005.23
2022-09-15T07:51:30.341Z,1005.26
2022-09-15T07:52:30.358Z,1005.25
2022-09-15T07:53:30.335Z,1005.3
2022-09-15T07:54:30.385Z,1005.26
2022-09-15T07:55:30.348Z,1005.26
2022-09-15T07:56:30.368Z,1005.25
2022-09-15T07:57:30.370Z,1005.25
2022-09-15T07:58:30.356Z,1005.23
2022-09-15T07:59:30.330Z,1005.25
2022-09-15T08:00:30.395Z,1005.25
2022-09-15T08:01:30.441Z,1005.31
2022-09-15T08:02:30.377Z,1005.37
2022-09-15T08:03:30.336Z,1005.36
2022-09-15T08:04:30.338Z,1005.34
2022-09-15T08:05:30.366Z,1005.3
2022-09-15T08:06:30.346Z,1005.37
2022-09-15T08:07:30.377Z,1005.36
2022-09-15T08:08:30.373Z,1005.36
2022-09-15T08:09:30.345Z,1005.39
2022-09-15T08:10:30.334Z,1005.39
2022-09-15T08:11:30.398Z,1005.31
2022-09-15T08:12:30.356Z,1005.3
2022-09-15T08:13:30.331Z,1005.32
2022-09-15T08:14:30.339Z,1005.36
2022-09-15T08:15:30.341Z,1005.41
2022-09-15T08:16:30.437Z,1005.41
2022-09-15T08:17:30.349Z,1005.42
2022-09-15T08:18:30.342Z,1005.39
2022-09-15T08:19:30.332Z,1005.39
2022-09-15T08:20:30.359Z,1005.39
2022-09-15T08:21:30.341Z,1005.46
2022-09-15T08:22:30.359Z,1005.45
2022-09-15T08:23:30.343Z,1005.46
2022-09-15T08:24:30.340Z,1005.47
2022-09-15T08:25:30.339Z,1005.47
2022-09-15T08:26:30.349Z,1005.5
2022-09-15T08:27:30.347Z,1005.46
2022-09-15T08:28:30.346Z,1005.47
2022-09-15T08:29:30.414Z,1005.47
2022-09-15T08:30:30.353Z,1005.49
2022-09-15T08:31:30.425Z,1005.48
2022-09-15T08:32:30.355Z,1005.43
2022-09-15T08:33:30.351Z,1005.44
2022-09-15T08:34:30.342Z,1005.5
2022-09-15T08:35:30.398Z,1005.51
2022-09-15T08:36:30.353Z,1005.49
2022-09-15T08:37:30.354Z,1005.49
2022-09-15T08:38:30.343Z,1005.5
2022-09-15T08:39:30.379Z,1005.56
2022-09-15T08:40:30.438Z,1005.56
2022-09-15T08:41:30.352Z,1005.52
2022-09-15T08:42:30.364Z,1005.46
2022-09-15T08:43:30.346Z,1005.42
2022-09-15T08:44:30.366Z,1005.34
2022-09-15T08:45:30.387Z,1005.4
2022-09-15T08:46:30.395Z,1005.39
2022-09-15T08:47:30.350Z,1005.4
2022-09-15T08:48:30.339Z,1005.4
2022-09-15T08:49:50.018Z,1005.41
2022-09-15T08:50:30.334Z,1005.41
2022-09-15T08:51:30.338Z,1005.44
2022-09-15T08:52:30.364Z,1005.4
2022-09-15T08:53:30.340Z,1005.33
2022-09-15T08:54:30.325Z,1005.34
2022-09-15T08:55:30.348Z,1005.34
2022-09-15T08:56:30.346Z,1005.41
2022-09-15T08:57:30.355Z,1005.4
2022-09-15T08:58:30.326Z,1005.46
2022-09-15T08:59:30.332Z,1005.47
2022-09-15T09:00:30.336Z,1005.47
2022-09-15T09:01:30.379Z,1005.5
2022-09-15T09:02:30.376Z,1005.47
2022-09-15T09:03:30.326Z,1005.52
2022-09-15T09:04:30.340Z,1005.5
2022-09-15T09:05:30.335Z,1005.5
2022-09-15T09:06:30.345Z,1005.49
2022-09-15T09:07:30.377Z,1005.43
2022-09-15T09:08:30.328Z,1005.43
2022-09-15T09:09:30.333Z,1005.41
2022-09-15T09:10:30.332Z,1005.41
2022-09-15T09:11:30.357Z,1005.36
2022-09-15T09:12:30.352Z,1005.39
2022-09-15T09:13:35.237Z,1005.39
2022-09-15T09:14:30.351Z,1005.3
2022-09-15T09:15:30.388Z,1005.3
2022-09-15T09:16:30.368Z,1005.37
2022-09-15T09:17:30.369Z,1005.35
2022-09-15T09:18:30.331Z,1005.36
2022-09-15T09:19:32.271Z,1005.31
2022-09-15T09:20:30.336Z,1005.31
2022-09-15T09:21:30.424Z,1005.34
2022-09-15T09:22:30.426Z,1005.31
2022-09-15T09:23:30.364Z,1005.3
2022-09-15T09:24:30.341Z,1005.3
2022-09-15T09:25:30.335Z,1005.3
2022-09-15T09:26:30.358Z,1005.33
2022-09-15T09:27:30.353Z,1005.36
2022-09-15T09:28:30.342Z,1005.38
2022-09-15T09:29:30.333Z,1005.38
2022-09-15T09:30:30.772Z,1005.38
2022-09-15T09:31:30.359Z,1005.44
2022-09-15T09:32:30.356Z,1005.39
2022-09-15T09:33:30.396Z,1005.41
2022-09-15T09:34:30.335Z,1005.38
2022-09-15T09:35:30.370Z,1005.38
2022-09-15T09:36:30.343Z,1005.37
2022-09-15T09:37:30.348Z,1005.41
2022-09-15T09:38:30.343Z,1005.39
2022-09-15T09:39:30.344Z,1005.38
2022-09-15T09:40:30.450Z,1005.38
2022-09-15T09:41:30.428Z,1005.38
2022-09-15T09:42:30.661Z,1005.39
2022-09-15T09:43:30.410Z,1005.35
2022-09-15T09:44:30.348Z,1005.36
2022-09-15T09:45:30.339Z,1005.29
2022-09-15T09:46:30.471Z,1005.31
2022-09-15T09:47:30.410Z,1005.31
2022-09-15T09:48:30.332Z,1005.31
2022-09-15T09:49:30.377Z,1005.3
2022-09-15T09:50:30.337Z,1005.3
2022-09-15T09:51:30.472Z,1005.3
2022-09-15T09:52:30.345Z,1005.25
2022-09-15T09:53:30.335Z,1005.18
2022-09-15T09:54:30.353Z,1005.2
2022-09-15T09:55:30.357Z,1005.2
2022-09-15T09:56:30.364Z,1005.18
2022-09-15T09:57:30.383Z,1005.19
2022-09-15T09:58:30.339Z,1005.21
2022-09-15T09:59:30.342Z,1005.19
2022-09-15T10:00:30.329Z,1005.19
2022-09-15T10:01:51.992Z,1005.2
2022-09-15T10:02:50.892Z,1005.18
2022-09-15T10:03:50.866Z,1005.15
2022-09-15T10:04:50.948Z,1005.22
2022-09-15T10:05:50.856Z,1005.21
2022-09-15T10:06:50.864Z,1005.22
2022-09-15T10:07:50.880Z,1005.18
2022-09-15T10:08:51.076Z,1005.18
2022-09-15T10:09:51.161Z,1005.18
2022-09-15T10:10:50.866Z,1005.19
2022-09-15T10:11:50.876Z,1005.19
2022-09-15T10:12:50.865Z,1005.14
2022-09-15T10:13:50.863Z,1005.17
2022-09-15T10:14:52.421Z,1005.22
2022-09-15T10:15:50.856Z,1005.21
2022-09-15T10:16:50.913Z,1005.23
2022-09-15T10:17:50.884Z,1005.21
2022-09-15T10:18:54.200Z,1005.25
2022-09-15T10:19:50.858Z,1005.22
2022-09-15T10:20:50.854Z,1005.23
2022-09-15T10:21:50.867Z,1005.26
2022-09-15T10:22:50.865Z,1005.26
2022-09-15T10:23:50.852Z,1005.19
2022-09-15T10:24:50.855Z,1005.24
2022-09-15T10:25:59.162Z,1005.21
2022-09-15T10:26:50.872Z,1005.22
2022-09-15T10:27:50.874Z,1005.21
2022-09-15T10:28:50.857Z,1005.23
2022-09-15T10:29:50.851Z,1005.24
2022-09-15T10:30:50.858Z,1005.24
2022-09-15T10:31:50.936Z,1005.31
2022-09-15T10:32:50.885Z,1005.32
2022-09-15T10:33:50.855Z,1005.29
2022-09-15T10:34:50.852Z,1005.33
2022-09-15T10:35:50.875Z,1005.33
2022-09-15T10:36:50.843Z,1005.31
2022-09-15T10:37:50.859Z,1005.29
2022-09-15T10:38:50.968Z,1005.31
2022-09-15T10:39:50.875Z,1005.33
2022-09-15T10:40:50.852Z,1005.36
2022-09-15T10:41:50.867Z,1005.37
2022-09-15T10:42:50.858Z,1005.34
2022-09-15T10:43:50.857Z,1005.32
2022-09-15T10:44:50.840Z,1005.34
2022-09-15T10:46:26.200Z,1005.31
2022-09-15T10:47:24.529Z,1005.32
2022-09-15T10:48:24.536Z,1005.36
2022-09-15T10:49:24.507Z,1005.35
2022-09-15T10:50:24.535Z,1005.35
2022-09-15T10:51:24.821Z,1005.31
2022-09-15T10:53:28.631Z,1005.39
2022-09-15T10:54:27.059Z,1005.4
2022-09-15T10:55:48.544Z,1005.39
2022-09-15T10:56:26.989Z,1005.37
2022-09-15T10:58:27.280Z,1005.37
2022-09-15T10:59:26.977Z,1005.37
2022-09-15T11:00:27.247Z,1005.37
2022-09-15T11:01:26.952Z,1005.37
2022-09-15T11:02:27.046Z,1005.37
2022-09-15T11:03:26.969Z,1005.35
2022-09-15T11:04:26.980Z,1005.36
2022-09-15T11:05:26.952Z,1005.36
2022-09-15T11:06:26.961Z,1005.34
2022-09-15T11:07:27.244Z,1005.32
2022-09-15T11:08:26.982Z,1005.32
2022-09-15T11:09:27.174Z,1005.31
2022-09-15T11:10:26.952Z,1005.31
2022-09-15T11:11:27.150Z,1005.32
2022-09-15T11:12:29.295Z,1005.36
2022-09-15T11:13:26.989Z,1005.33
2022-09-15T11:14:26.979Z,1005.35
2022-09-15T11:15:26.965Z,1005.32
2022-09-15T11:16:27.045Z,1005.32
2022-09-15T11:17:27.017Z,1005.38
2022-09-15T11:18:26.991Z,1005.36
2022-09-15T11:19:26.965Z,1005.36
2022-09-15T11:20:26.953Z,1005.32
2022-09-15T11:21:26.947Z,1005.32
2022-09-15T11:22:26.976Z,1005.29
2022-09-15T11:23:27.253Z,1005.25
2022-09-15T11:24:26.970Z,1005.29
2022-09-15T11:25:26.949Z,1005.23
2022-09-15T11:26:26.971Z,1005.26
2022-09-15T11:27:26.979Z,1005.24
2022-09-15T11:28:26.981Z,1005.31
2022-09-15T11:29:26.964Z,1005.29
2022-09-15T11:30:27.415Z,1005.29
2022-09-15T11:31:27.061Z,1005.25
2022-09-15T11:32:26.966Z,1005.3
2022-09-15T11:33:26.972Z,1005.32
2022-09-15T11:34:26.969Z,1005.31
2022-09-15T11:35:26.962Z,1005.3
2022-09-15T11:36:26.970Z,1005.32
2022-09-15T11:37:26.973Z,1005.31
2022-09-15T11:38:26.967Z,1005.32
2022-09-15T11:39:26.956Z,1005.34
2022-09-15T11:40:27.013Z,1005.34
2022-09-15T11:41:26.959Z,1005.36
2022-09-15T11:42:26.974Z,1005.36
2022-09-15T11:43:26.957Z,1005.32
2022-09-15T11:44:26.944Z,1005.35
2022-09-15T11:45:26.941Z,1005.35
2022-09-15T11:46:27.024Z,1005.37
2022-09-15T11:47:26.949Z,1005.37
2022-09-15T11:48:26.954Z,1005.36
2022-09-15T11:49:26.941Z,1005.39
2022-09-15T11:50:26.977Z,1005.39
2022-09-15T11:51:26.957Z,1005.37
2022-09-15T11:52:26.941Z,1005.38
2022-09-15T11:53:26.948Z,1005.34
2022-09-15T11:54:29.977Z,1005.37
2022-09-15T11:55:26.943Z,1005.41
2022-09-15T11:56:26.945Z,1005.41
2022-09-15T11:57:26.972Z,1005.4
2022-09-15T11:58:26.953Z,1005.39
2022-09-15T11:59:26.966Z,1005.45
2022-09-15T12:00:26.970Z,1005.45
2022-09-15T12:01:27.067Z,1005.43
2022-09-15T12:02:27.161Z,1005.45
2022-09-15T12:03:26.966Z,1005.42
2022-09-15T12:04:26.968Z,1005.34
2022-09-15T12:05:26.966Z,1005.41
2022-09-15T12:06:26.973Z,1005.39
2022-09-15T12:07:26.962Z,1005.4
2022-09-15T12:08:26.966Z,1005.4
2022-09-15T12:09:26.964Z,1005.42
2022-09-15T12:10:26.947Z,1005.42
2022-09-15T12:11:26.969Z,1005.38